Time;durP1;ratioP1;P1;durP2;ratioP2;P2;SDS_P1;SDS_P2;PMS_P1;PMS_P2;Temp;Humidity;BMP_temperature;BMP_pressure;BME280_temperature;BME280_humidity;BME280_pressure;Samples;Min_cycle;Max_cycle;Signal;HPM_P1;HPM_P2
2021/12/22 00:00:33;;;;;;;20.37;8.97;;;1.80;74.90;;;;;;5120594;27;20192;-77
2021/12/22 00:03:01;;;;;;;17.37;8.87;;;1.80;74.80;;;;;;5120888;27;20192;-77
2021/12/22 00:05:31;;;;;;;18.40;9.07;;;1.80;74.80;;;;;;5114940;27;20595;-78
2021/12/22 00:08:00;;;;;;;19.20;9.57;;;1.80;74.90;;;;;;5109915;27;20200;-78
2021/12/22 00:10:28;;;;;;;15.97;9.30;;;1.80;75.00;;;;;;5123168;27;20196;-78
2021/12/22 00:12:56;;;;;;;19.83;8.90;;;1.80;75.20;;;;;;5116697;27;20646;-77
2021/12/22 00:15:26;;;;;;;18.67;9.37;;;1.80;75.20;;;;;;5117795;27;20526;-78
2021/12/22 00:17:54;;;;;;;25.00;9.83;;;1.80;75.20;;;;;;5122677;27;20196;-78
2021/12/22 00:20:23;;;;;;;18.20;8.53;;;1.80;75.50;;;;;;5121089;27;20197;-78
2021/12/22 00:22:51;;;;;;;19.93;9.47;;;1.80;75.50;;;;;;5122814;27;20189;-78
2021/12/22 00:25:21;;;;;;;19.77;8.33;;;1.80;75.70;;;;;;5117708;27;20546;-78
2021/12/22 00:27:49;;;;;;;17.93;8.50;;;1.80;75.70;;;;;;5116595;27;20813;-77
2021/12/22 00:30:18;;;;;;;16.63;8.40;;;1.80;76.00;;;;;;5123544;27;20196;-79
2021/12/22 00:32:51;;;;;;;18.67;8.87;;;1.80;76.00;;;;;;5122057;27;20196;-77
2021/12/22 00:35:21;;;;;;;15.93;8.67;;;1.80;76.10;;;;;;5116711;27;20185;-77
2021/12/22 00:37:49;;;;;;;19.88;10.85;;;1.80;76.30;;;;;;5121070;27;20450;-78
2021/12/22 00:40:18;;;;;;;18.00;8.60;;;1.70;76.30;;;;;;5124271;27;20192;-78
2021/12/22 00:42:46;;;;;;;16.87;8.23;;;1.70;76.60;;;;;;5120654;27;20184;-77
2021/12/22 00:45:17;;;;;;;19.17;9.37;;;1.70;76.70;;;;;;5120040;27;20236;-77
2021/12/22 00:47:46;;;;;;;19.10;8.70;;;1.70;76.90;;;;;;5121486;27;20650;-78
2021/12/22 00:50:15;;;;;;;19.77;8.70;;;1.70;77.20;;;;;;5119931;27;20654;-77
2021/12/22 00:52:43;;;;;;;21.10;10.00;;;1.70;77.00;;;;;;5123765;27;20188;-77
2021/12/22 00:55:17;;;;;;;16.37;9.23;;;1.70;77.20;;;;;;5119142;27;20969;-76
2021/12/22 00:57:45;;;;;;;16.10;8.70;;;1.70;77.20;;;;;;5115118;27;20181;-77
2021/12/22 01:00:16;;;;;;;20.03;8.83;;;1.70;77.10;;;;;;5119715;27;20192;-78
2021/12/22 01:02:45;;;;;;;19.63;8.90;;;1.70;77.20;;;;;;5123314;27;20645;-77
2021/12/22 01:05:17;;;;;;;20.57;10.50;;;1.70;77.40;;;;;;5120964;27;20224;-78
2021/12/22 01:07:49;;;;;;;17.90;9.37;;;1.70;77.40;;;;;;5116542;27;20625;-78
2021/12/22 01:10:19;;;;;;;18.10;9.93;;;1.70;77.30;;;;;;5118650;27;20184;-78
2021/12/22 01:12:48;;;;;;;22.03;9.77;;;1.70;77.40;;;;;;5118594;27;20185;-78
2021/12/22 01:15:17;;;;;;;18.10;9.63;;;1.80;77.50;;;;;;5121402;27;20188;-78
2021/12/22 01:17:48;;;;;;;20.70;10.07;;;1.80;77.40;;;;;;5119672;27;20219;-77
2021/12/22 01:20:24;;;;;;;19.90;9.97;;;1.80;77.30;;;;;;5119086;27;20250;-78
2021/12/22 01:23:01;;;;;;;17.50;9.77;;;1.90;77.30;;;;;;5122175;27;20199;-78
2021/12/22 01:25:31;;;;;;;18.50;9.93;;;1.90;77.30;;;;;;5120359;27;20211;-78
2021/12/22 01:27:59;;;;;;;18.53;9.23;;;1.90;77.30;;;;;;5118968;27;20192;-78
2021/12/22 01:30:30;;;;;;;21.47;10.27;;;1.90;77.00;;;;;;5120165;27;20245;-78
2021/12/22 01:33:01;;;;;;;19.27;9.47;;;2.00;76.90;;;;;;5124522;27;20632;-78
2021/12/22 01:35:34;;;;;;;20.33;10.00;;;1.90;76.70;;;;;;5119327;27;20200;-78
2021/12/22 01:38:03;;;;;;;19.47;9.33;;;1.90;76.40;;;;;;5120922;27;20958;-77
2021/12/22 01:40:32;;;;;;;19.40;10.63;;;1.90;76.30;;;;;;5122938;27;20211;-78
2021/12/22 01:43:05;;;;;;;20.20;9.63;;;1.90;76.30;;;;;;5120368;27;20690;-78
2021/12/22 01:45:52;;;;;;;20.50;9.80;;;1.90;76.40;;;;;;5119231;27;20880;-78
2021/12/22 01:51:26;;;;;;;23.17;11.20;;;1.90;76.40;;;;;;5117481;27;20191;-78
2021/12/22 01:54:01;;;;;;;22.70;11.87;;;1.90;76.30;;;;;;5120289;27;20184;-77
2021/12/22 01:56:32;;;;;;;24.13;12.07;;;1.90;76.30;;;;;;5106833;27;20202;-77
2021/12/22 01:59:06;;;;;;;19.87;11.07;;;1.90;76.10;;;;;;5118849;27;20195;-77
2021/12/22 02:01:35;;;;;;;23.03;11.33;;;1.90;76.00;;;;;;5118469;27;20200;-77
2021/12/22 02:04:05;;;;;;;22.70;11.27;;;1.90;76.00;;;;;;5122014;27;20188;-77
2021/12/22 02:06:35;;;;;;;19.33;10.37;;;1.90;75.90;;;;;;5119894;27;20304;-76
2021/12/22 02:09:04;;;;;;;19.33;10.13;;;1.90;75.90;;;;;;5111686;27;20284;-77
2021/12/22 02:11:33;;;;;;;20.50;10.73;;;1.90;75.90;;;;;;5116413;27;20812;-77
2021/12/22 02:14:04;;;;;;;21.50;10.70;;;1.90;76.00;;;;;;5121696;27;20193;-77
2021/12/22 02:16:37;;;;;;;26.73;11.87;;;1.90;76.00;;;;;;5122985;27;20200;-78
2021/12/22 02:19:07;;;;;;;24.93;11.53;;;1.90;76.00;;;;;;5125195;27;20185;-77
2021/12/22 02:21:47;;;;;;;23.97;11.13;;;1.90;76.00;;;;;;5121248;27;20827;-76
2021/12/22 02:24:15;;;;;;;22.87;11.40;;;1.90;76.00;;;;;;5119203;27;20604;-77
2021/12/22 02:26:49;;;;;;;22.00;11.17;;;1.90;76.00;;;;;;5119898;27;20216;-77
2021/12/22 02:29:21;;;;;;;25.53;11.23;;;2.00;76.10;;;;;;5112270;28;20180;-77
2021/12/22 02:32:03;;;;;;;19.67;10.37;;;2.00;76.10;;;;;;5113959;27;21137;-77
2021/12/22 02:34:39;;;;;;;22.40;10.60;;;2.00;76.00;;;;;;5118832;28;20188;-77
2021/12/22 02:37:13;;;;;;;21.40;10.13;;;2.00;75.90;;;;;;5120976;28;20687;-77
2021/12/22 02:39:51;;;;;;;24.00;11.40;;;2.10;75.90;;;;;;5121956;27;20199;-77
2021/12/22 02:42:23;;;;;;;22.13;11.30;;;2.10;75.80;;;;;;5116763;27;21130;-77
2021/12/22 02:44:52;;;;;;;21.03;10.27;;;2.10;75.70;;;;;;5121452;27;20217;-77
2021/12/22 02:47:22;;;;;;;22.97;9.50;;;2.10;75.60;;;;;;5120401;27;20192;-77
2021/12/22 02:49:51;;;;;;;25.63;10.97;;;2.10;75.60;;;;;;5120272;27;20545;-77
2021/12/22 02:52:20;;;;;;;23.83;10.93;;;2.10;75.50;;;;;;5120727;28;20287;-77
2021/12/22 02:54:54;;;;;;;21.03;10.97;;;2.10;75.50;;;;;;5118067;27;20191;-77
2021/12/22 02:57:29;;;;;;;22.33;11.10;;;2.20;75.50;;;;;;5118920;28;20204;-77
2021/12/22 03:00:28;;;;;;;20.63;10.03;;;2.10;75.20;;;;;;5121346;27;20196;-77
2021/12/22 03:03:07;;;;;;;22.20;12.03;;;2.10;75.00;;;;;;5115558;27;20204;-77
2021/12/22 03:05:37;;;;;;;19.87;10.57;;;2.10;75.00;;;;;;5117930;27;20208;-77
2021/12/22 03:08:07;;;;;;;23.30;10.20;;;2.20;75.00;;;;;;5118656;27;20196;-78
2021/12/22 03:10:35;;;;;;;19.50;10.57;;;2.10;74.90;;;;;;5120266;27;20188;-77
2021/12/22 03:13:04;;;;;;;19.40;10.27;;;2.20;75.00;;;;;;5121354;27;20192;-77
2021/12/22 03:15:33;;;;;;;21.27;10.77;;;2.20;75.00;;;;;;5119049;27;20619;-77
2021/12/22 03:18:03;;;;;;;22.23;10.90;;;2.20;74.90;;;;;;5122692;28;20193;-78
2021/12/22 03:20:31;;;;;;;21.33;9.83;;;2.20;74.70;;;;;;5116929;27;20199;-77
2021/12/22 03:23:00;;;;;;;20.30;10.73;;;2.20;74.60;;;;;;5121483;27;20216;-78
2021/12/22 03:25:30;;;;;;;24.27;10.37;;;2.20;74.60;;;;;;5116645;27;20205;-78
2021/12/22 03:28:02;;;;;;;28.93;11.10;;;2.10;74.50;;;;;;5120133;28;20198;-77
2021/12/22 03:30:32;;;;;;;19.20;10.87;;;2.20;74.60;;;;;;5120284;27;20180;-77
2021/12/22 03:33:00;;;;;;;25.23;11.50;;;2.10;74.60;;;;;;5125157;27;20236;-77
2021/12/22 03:35:29;;;;;;;20.20;11.87;;;2.10;74.60;;;;;;5126919;27;20638;-78
2021/12/22 03:37:59;;;;;;;25.67;12.33;;;2.20;74.60;;;;;;5111356;27;20417;-77
2021/12/22 03:40:29;;;;;;;24.47;11.67;;;2.10;74.60;;;;;;5123076;27;20669;-77
2021/12/22 03:42:58;;;;;;;21.70;11.83;;;2.20;74.40;;;;;;5121519;27;20192;-76
2021/12/22 03:45:26;;;;;;;24.10;11.10;;;2.10;74.30;;;;;;5121645;27;20223;-77
2021/12/22 03:47:55;;;;;;;21.50;10.97;;;2.10;74.30;;;;;;5120870;27;20196;-77
2021/12/22 03:50:23;;;;;;;21.57;10.87;;;2.10;75.10;;;;;;5120517;27;20193;-77
2021/12/22 03:52:52;;;;;;;21.80;11.20;;;2.10;74.30;;;;;;5107776;27;20194;-77
2021/12/22 03:55:21;;;;;;;22.67;11.37;;;2.10;74.30;;;;;;5123968;27;20280;-77
2021/12/22 03:57:51;;;;;;;21.93;11.23;;;2.10;74.40;;;;;;5125141;27;20203;-77
2021/12/22 04:00:20;;;;;;;21.33;11.30;;;2.10;74.40;;;;;;5121692;27;20206;-77
2021/12/22 04:02:48;;;;;;;24.60;11.90;;;2.10;74.50;;;;;;5121699;27;20193;-77
2021/12/22 04:05:18;;;;;;;28.70;13.27;;;2.10;74.40;;;;;;5121153;27;20193;-78
2021/12/22 04:07:47;;;;;;;30.33;13.37;;;2.00;74.50;;;;;;5124891;27;20216;-76
2021/12/22 04:10:22;;;;;;;27.00;12.73;;;2.00;74.70;;;;;;5122355;27;20180;-77
2021/12/22 04:12:54;;;;;;;24.20;12.90;;;2.00;74.70;;;;;;5120516;27;20191;-77
2021/12/22 04:15:24;;;;;;;23.67;12.63;;;2.00;74.70;;;;;;5124248;27;20695;-77
2021/12/22 04:17:53;;;;;;;25.90;12.70;;;2.00;74.90;;;;;;5124747;27;20196;-77
2021/12/22 04:20:21;;;;;;;26.93;12.63;;;2.00;74.90;;;;;;5120256;27;20204;-77
2021/12/22 04:22:50;;;;;;;29.42;15.70;;;2.00;74.90;;;;;;5123655;27;20834;-77
2021/12/22 04:25:21;;;;;;;28.23;13.97;;;2.00;75.00;;;;;;5118502;27;20681;-77
2021/12/22 04:27:50;;;;;;;26.37;13.60;;;2.00;75.20;;;;;;5119814;27;20208;-77
2021/12/22 04:30:21;;;;;;;29.20;13.40;;;1.90;75.00;;;;;;5121357;27;20188;-77
2021/12/22 04:32:50;;;;;;;26.27;13.63;;;1.90;75.00;;;;;;5123891;27;20189;-77
2021/12/22 04:35:18;;;;;;;25.23;12.87;;;1.90;75.00;;;;;;5121068;27;20188;-77
2021/12/22 04:37:47;;;;;;;26.67;13.17;;;2.00;75.00;;;;;;5118725;27;20871;-77
2021/12/22 04:40:15;;;;;;;23.53;12.03;;;2.00;74.90;;;;;;5120356;27;20196;-77
2021/12/22 04:42:44;;;;;;;25.97;13.27;;;2.00;74.70;;;;;;5121900;27;20196;-77
2021/12/22 04:45:13;;;;;;;33.77;15.00;;;2.00;74.70;;;;;;5115817;27;20304;-77
2021/12/22 04:47:44;;;;;;;33.13;13.50;;;1.90;74.50;;;;;;5122092;27;20235;-77
2021/12/22 04:50:16;;;;;;;25.57;13.30;;;1.90;74.50;;;;;;5122450;27;20853;-77
2021/12/22 04:52:52;;;;;;;28.17;14.00;;;1.90;74.50;;;;;;5119134;27;20188;-78
2021/12/22 04:55:21;;;;;;;29.07;14.33;;;1.90;74.50;;;;;;5124883;27;20202;-76
2021/12/22 04:57:49;;;;;;;28.40;14.50;;;1.80;74.50;;;;;;5124041;27;20195;-77
2021/12/22 05:00:18;;;;;;;32.93;15.80;;;1.80;74.50;;;;;;5122598;27;20189;-77
2021/12/22 05:02:47;;;;;;;28.30;14.20;;;1.80;74.60;;;;;;5123569;27;20200;-77
2021/12/22 05:05:17;;;;;;;30.23;13.30;;;1.80;74.70;;;;;;5125018;27;20185;-76
2021/12/22 05:07:47;;;;;;;20.97;12.67;;;1.80;74.70;;;;;;5120009;27;21192;-77
2021/12/22 05:10:17;;;;;;;25.70;12.77;;;1.80;74.60;;;;;;5123652;27;20333;-77
2021/12/22 05:12:47;;;;;;;25.27;12.73;;;1.80;74.60;;;;;;5123190;27;20202;-77
2021/12/22 05:15:19;;;;;;;30.00;13.67;;;1.70;74.60;;;;;;5121517;27;20201;-77
2021/12/22 05:20:44;;;;;;;27.70;14.73;;;1.70;74.70;;;;;;5075609;27;20198;-77
2021/12/22 05:23:16;;;;;;;30.47;16.10;;;1.70;74.70;;;;;;5122700;27;20195;-77
2021/12/22 05:25:45;;;;;;;35.57;16.40;;;1.70;74.80;;;;;;5121842;27;20218;-77
2021/12/22 05:28:14;;;;;;;36.33;15.87;;;1.70;74.80;;;;;;5120766;27;20216;-77
2021/12/22 05:30:46;;;;;;;29.23;14.80;;;1.70;74.80;;;;;;5120902;27;20222;-77
2021/12/22 05:33:15;;;;;;;26.67;13.77;;;1.70;74.80;;;;;;5122693;27;20854;-77
2021/12/22 05:35:44;;;;;;;28.80;13.57;;;1.70;74.70;;;;;;5118889;27;20198;-77
2021/12/22 05:38:12;;;;;;;30.90;14.53;;;1.70;74.70;;;;;;5121989;27;20559;-76
2021/12/22 05:40:41;;;;;;;28.13;14.40;;;1.70;74.60;;;;;;5118817;27;20683;-77
2021/12/22 05:43:10;;;;;;;37.10;14.77;;;1.70;74.50;;;;;;5122361;27;20193;-77
2021/12/22 05:45:38;;;;;;;31.13;14.33;;;1.80;74.60;;;;;;5121641;27;20212;-77
2021/12/22 05:48:07;;;;;;;31.80;13.93;;;1.70;74.40;;;;;;5123730;27;20224;-77
2021/12/22 05:50:36;;;;;;;35.87;15.50;;;1.80;74.20;;;;;;5121439;27;20701;-77
2021/12/22 05:53:05;;;;;;;35.30;16.27;;;1.70;74.00;;;;;;5120203;27;20197;-77
2021/12/22 05:55:34;;;;;;;34.43;16.40;;;1.70;74.00;;;;;;5121673;27;20223;-77
2021/12/22 05:58:02;;;;;;;34.23;16.47;;;1.70;74.20;;;;;;5125286;27;20226;-77
2021/12/22 06:00:30;;;;;;;33.83;15.87;;;1.70;74.30;;;;;;5117245;27;20193;-77
2021/12/22 06:02:59;;;;;;;32.83;15.57;;;1.70;74.40;;;;;;5120688;27;20192;-77
2021/12/22 06:05:28;;;;;;;34.83;16.83;;;1.70;74.50;;;;;;5119444;27;20188;-77
2021/12/22 06:07:57;;;;;;;39.67;19.83;;;1.70;74.50;;;;;;5114196;27;20215;-77
2021/12/22 06:10:26;;;;;;;37.90;17.53;;;1.80;74.60;;;;;;5121543;27;20214;-77
2021/12/22 06:12:54;;;;;;;34.73;16.60;;;1.80;74.70;;;;;;5117077;27;20196;-77
2021/12/22 06:15:22;;;;;;;37.87;16.83;;;1.80;74.70;;;;;;5116427;27;20668;-77
2021/12/22 06:17:54;;;;;;;36.93;16.80;;;1.80;74.70;;;;;;5117247;27;20196;-77
2021/12/22 06:20:23;;;;;;;32.17;15.27;;;1.80;74.80;;;;;;5117297;27;20217;-77
2021/12/22 06:22:52;;;;;;;33.57;16.33;;;1.80;75.00;;;;;;5120275;27;20844;-77
2021/12/22 06:25:23;;;;;;;34.70;16.70;;;1.90;75.20;;;;;;5121565;27;20192;-77
2021/12/22 06:27:51;;;;;;;34.97;16.60;;;1.90;75.30;;;;;;5119536;27;20208;-76
2021/12/22 06:30:20;;;;;;;29.90;15.63;;;1.90;75.50;;;;;;5120561;27;20199;-77
2021/12/22 06:32:48;;;;;;;35.53;16.43;;;1.90;75.70;;;;;;5118342;28;20191;-77
2021/12/22 06:35:18;;;;;;;35.37;19.10;;;1.90;75.80;;;;;;5112703;28;20252;-77
2021/12/22 06:37:47;;;;;;;49.30;21.40;;;1.90;75.90;;;;;;5119490;27;20192;-77
2021/12/22 06:40:16;;;;;;;50.57;19.53;;;1.90;76.00;;;;;;5121750;27;20203;-77
2021/12/22 06:42:46;;;;;;;45.13;21.13;;;2.00;76.20;;;;;;5121234;27;20196;-76
2021/12/22 06:45:15;;;;;;;43.77;21.53;;;2.00;77.00;;;;;;5122522;27;20242;-77
2021/12/22 06:47:44;;;;;;;37.90;20.40;;;2.00;76.30;;;;;;5121534;27;20216;-76
2021/12/22 06:50:13;;;;;;;37.77;19.50;;;2.10;76.50;;;;;;5121173;27;20688;-76
2021/12/22 06:52:41;;;;;;;42.20;18.03;;;2.10;76.50;;;;;;5119779;28;20188;-77
2021/12/22 06:55:10;;;;;;;42.30;19.50;;;2.10;76.50;;;;;;5122668;27;21025;-78
2021/12/22 06:57:38;;;;;;;45.10;21.00;;;2.10;76.60;;;;;;5121709;27;20961;-78
2021/12/22 07:00:11;;;;;;;37.73;18.30;;;2.20;76.80;;;;;;5121861;27;20192;-76
2021/12/22 07:02:39;;;;;;;34.53;15.97;;;2.20;77.00;;;;;;5121641;27;20217;-78
2021/12/22 07:05:11;;;;;;;31.80;15.77;;;2.20;77.20;;;;;;5121462;27;20299;-78
2021/12/22 07:07:41;;;;;;;31.40;15.83;;;2.30;77.40;;;;;;5120671;28;20205;-77
2021/12/22 07:10:11;;;;;;;29.97;15.57;;;2.30;77.40;;;;;;5124089;27;20208;-77
2021/12/22 07:12:41;;;;;;;27.53;15.03;;;2.30;77.40;;;;;;5126100;27;20178;-77
2021/12/22 07:15:13;;;;;;;33.97;15.63;;;2.30;77.50;;;;;;5125504;27;20184;-77
2021/12/22 07:17:41;;;;;;;34.23;16.10;;;2.30;77.60;;;;;;5126872;27;20189;-78
2021/12/22 07:20:11;;;;;;;36.80;15.63;;;2.30;78.50;;;;;;5127492;27;20197;-77
2021/12/22 07:22:40;;;;;;;31.93;15.90;;;2.30;77.70;;;;;;5124301;27;20196;-76
2021/12/22 07:25:12;;;;;;;29.63;14.83;;;2.40;77.80;;;;;;5137039;27;20917;-77
2021/12/22 07:27:40;;;;;;;30.73;14.87;;;2.40;77.80;;;;;;5127364;27;20201;-77
2021/12/22 07:30:12;;;;;;;34.77;15.73;;;2.40;77.80;;;;;;5124761;27;20820;-77
2021/12/22 07:32:40;;;;;;;39.30;15.60;;;2.40;77.80;;;;;;5125801;27;20206;-77
2021/12/22 07:35:14;;;;;;;32.23;14.40;;;2.30;77.50;;;;;;5127897;27;20189;-77
2021/12/22 07:37:51;;;;;;;28.10;12.53;;;2.40;77.80;;;;;;5127418;27;20277;-77
2021/12/22 07:40:20;;;;;;;26.73;13.83;;;2.40;77.80;;;;;;5127433;27;20186;-77
2021/12/22 07:42:49;;;;;;;27.47;13.80;;;2.40;77.60;;;;;;5128112;27;20223;-77
2021/12/22 07:45:18;;;;;;;29.27;15.13;;;2.40;77.40;;;;;;5127541;27;20212;-77
2021/12/22 07:47:47;;;;;;;30.30;15.07;;;2.50;77.50;;;;;;5128012;27;20193;-77
2021/12/22 07:50:15;;;;;;;34.90;16.70;;;2.50;77.50;;;;;;5125002;27;20193;-76
2021/12/22 07:52:43;;;;;;;35.13;16.90;;;2.50;77.30;;;;;;5126952;27;20184;-76
2021/12/22 07:55:12;;;;;;;46.77;20.23;;;2.50;77.10;;;;;;5125717;27;20184;-77
2021/12/22 07:57:40;;;;;;;35.60;17.00;;;2.60;77.20;;;;;;5125947;27;20189;-77
2021/12/22 08:00:10;;;;;;;30.20;15.10;;;2.60;76.80;;;;;;5125800;27;20945;-77
2021/12/22 08:02:40;;;;;;;37.83;16.00;;;2.60;76.20;;;;;;5127045;27;20201;-77
2021/12/22 08:05:24;;;;;;;34.93;16.73;;;2.70;76.40;;;;;;5125801;27;20600;-78
2021/12/22 08:07:53;;;;;;;32.70;16.83;;;2.70;76.60;;;;;;5126441;27;20190;-78
2021/12/22 08:10:21;;;;;;;34.53;15.47;;;2.90;76.70;;;;;;5126759;27;20589;-78
2021/12/22 08:12:50;;;;;;;28.57;13.13;;;2.90;76.40;;;;;;5127103;27;20191;-77
2021/12/22 08:15:18;;;;;;;30.60;15.88;;;3.10;76.50;;;;;;5125317;27;20764;-77
2021/12/22 08:17:48;;;;;;;33.87;16.80;;;3.20;76.10;;;;;;5125849;27;20190;-77
2021/12/22 08:20:16;;;;;;;32.67;15.87;;;3.20;75.50;;;;;;5125608;27;20193;-78
2021/12/22 08:22:45;;;;;;;31.13;15.47;;;3.30;75.10;;;;;;5123963;27;20194;-77
2021/12/22 08:25:13;;;;;;;28.00;15.70;;;3.40;75.00;;;;;;5126003;27;20214;-78
2021/12/22 08:27:42;;;;;;;33.13;15.07;;;3.40;74.60;;;;;;5122763;27;20189;-77
2021/12/22 08:30:11;;;;;;;33.90;17.20;;;3.50;74.60;;;;;;5124494;27;20215;-77
2021/12/22 08:32:40;;;;;;;30.03;15.10;;;3.50;74.10;;;;;;5125956;27;20191;-77
2021/12/22 08:35:12;;;;;;;31.80;15.63;;;3.50;74.10;;;;;;5126115;27;20892;-76
2021/12/22 08:40:27;;;;;;;33.27;15.97;;;3.70;73.90;;;;;;5125935;27;20196;-77
2021/12/22 08:42:55;;;;;;;35.77;14.17;;;3.70;73.80;;;;;;5125637;27;20223;-77
2021/12/22 08:45:23;;;;;;;25.10;14.17;;;3.80;73.80;;;;;;5123771;27;20221;-77
2021/12/22 08:47:52;;;;;;;28.37;13.80;;;3.90;74.00;;;;;;5123362;27;20190;-77
2021/12/22 08:50:27;;;;;;;25.97;12.53;;;4.00;73.70;;;;;;5124988;27;20211;-77
2021/12/22 08:52:56;;;;;;;22.20;11.67;;;4.00;73.60;;;;;;5124054;27;20623;-76
2021/12/22 08:55:24;;;;;;;24.30;10.83;;;4.10;73.10;;;;;;5122942;27;20202;-77
2021/12/22 08:57:53;;;;;;;19.90;10.37;;;4.10;72.90;;;;;;5121500;27;20191;-77
2021/12/22 09:00:21;;;;;;;21.53;11.23;;;4.20;72.20;;;;;;5123211;27;20189;-76
2021/12/22 09:02:49;;;;;;;23.50;9.80;;;4.30;71.60;;;;;;5107709;27;20196;-77
2021/12/22 09:05:19;;;;;;;17.70;8.93;;;4.30;71.20;;;;;;5106802;27;20273;-77
2021/12/22 09:07:49;;;;;;;18.20;9.30;;;4.30;70.00;;;;;;5120304;27;20185;-77
2021/12/22 09:10:18;;;;;;;19.90;9.73;;;4.40;68.70;;;;;;5120385;27;20724;-77
2021/12/22 09:12:47;;;;;;;21.33;10.90;;;4.40;67.80;;;;;;5118368;27;20184;-77
2021/12/22 09:15:17;;;;;;;26.00;11.80;;;4.40;68.00;;;;;;5118741;27;20427;-77
2021/12/22 09:17:45;;;;;;;18.37;10.60;;;4.30;68.20;;;;;;5121730;27;20196;-77
2021/12/22 09:20:14;;;;;;;20.57;11.00;;;4.40;68.20;;;;;;5122828;27;20188;-77
2021/12/22 09:22:42;;;;;;;26.00;10.97;;;4.40;67.90;;;;;;5124903;27;20197;-78
2021/12/22 09:25:12;;;;;;;24.63;11.70;;;4.40;67.80;;;;;;5123136;27;20200;-77
2021/12/22 09:27:40;;;;;;;19.47;10.23;;;4.50;68.30;;;;;;5123365;27;20203;-77
2021/12/22 09:30:10;;;;;;;24.70;11.57;;;4.50;68.50;;;;;;5122895;27;20223;-78
2021/12/22 09:32:39;;;;;;;20.87;10.33;;;4.60;68.80;;;;;;5123549;27;20200;-77
2021/12/22 09:35:08;;;;;;;26.53;10.07;;;4.70;68.40;;;;;;5123283;27;20184;-77
2021/12/22 09:37:37;;;;;;;21.40;9.97;;;4.70;67.50;;;;;;5123381;27;20204;-77
2021/12/22 09:40:08;;;;;;;22.03;10.60;;;4.70;67.40;;;;;;5122114;27;20196;-78
2021/12/22 09:42:38;;;;;;;20.60;10.53;;;4.70;67.10;;;;;;5120313;27;20224;-76
2021/12/22 09:45:07;;;;;;;20.63;10.20;;;4.70;67.60;;;;;;5121172;27;20220;-77
2021/12/22 09:47:50;;;;;;;24.57;11.10;;;4.80;68.10;;;;;;5121681;27;20189;-77
2021/12/22 09:50:35;;;;;;;23.50;11.57;;;4.80;68.00;;;;;;5126662;27;20662;-77
2021/12/22 09:53:03;;;;;;;22.03;10.60;;;4.80;68.50;;;;;;5120727;27;20594;-76
2021/12/22 09:55:35;;;;;;;19.77;11.07;;;4.90;68.20;;;;;;5121834;27;20193;-77
2021/12/22 09:58:05;;;;;;;23.83;10.27;;;4.80;67.60;;;;;;5122538;27;20184;-77
2021/12/22 10:00:35;;;;;;;26.17;11.23;;;4.80;67.70;;;;;;5121942;27;20187;-78
2021/12/22 10:03:05;;;;;;;21.27;10.47;;;4.80;67.80;;;;;;5122401;27;20199;-80
2021/12/22 10:05:34;;;;;;;23.03;11.40;;;4.90;67.70;;;;;;5121008;27;20199;-77
2021/12/22 10:08:07;;;;;;;25.03;10.90;;;4.90;67.60;;;;;;5120357;27;20188;-77
2021/12/22 10:10:36;;;;;;;20.00;10.70;;;4.90;67.50;;;;;;5113111;27;20200;-77
2021/12/22 10:13:08;;;;;;;20.60;10.23;;;5.00;67.30;;;;;;5119370;27;20189;-78
2021/12/22 10:15:37;;;;;;;23.70;11.83;;;5.10;67.70;;;;;;5120657;27;20184;-78
2021/12/22 10:18:11;;;;;;;20.77;10.57;;;5.10;67.50;;;;;;5121371;27;20196;-77
2021/12/22 10:20:40;;;;;;;18.93;10.03;;;5.00;67.30;;;;;;5120415;27;20172;-77
2021/12/22 10:23:24;;;;;;;20.50;9.60;;;5.00;66.80;;;;;;5121809;27;20204;-77
2021/12/22 10:25:54;;;;;;;19.27;9.77;;;5.00;66.90;;;;;;5121195;27;20180;-77
2021/12/22 10:28:25;;;;;;;20.83;10.03;;;5.00;67.30;;;;;;5122814;27;20199;-76
2021/12/22 10:30:56;;;;;;;17.50;9.67;;;5.00;67.50;;;;;;5120219;27;20212;-76
2021/12/22 10:33:27;;;;;;;16.20;8.80;;;5.00;67.30;;;;;;5121201;28;20276;-76
2021/12/22 10:36:01;;;;;;;19.40;8.63;;;5.00;66.30;;;;;;5122604;27;20342;-76
2021/12/22 10:38:32;;;;;;;18.50;9.27;;;5.00;66.60;;;;;;5121058;27;20184;-76
2021/12/22 10:41:04;;;;;;;14.67;7.50;;;5.00;66.30;;;;;;5122007;28;20241;-77
2021/12/22 10:43:35;;;;;;;14.27;8.03;;;4.90;65.50;;;;;;5121635;27;20184;-76
2021/12/22 10:46:06;;;;;;;15.00;8.13;;;4.90;64.70;;;;;;5123918;27;20227;-77
2021/12/22 10:51:27;;;;;;;17.70;8.67;;;5.00;66.00;;;;;;5123265;27;20196;-77
2021/12/22 10:53:56;;;;;;;14.40;8.67;;;4.90;66.00;;;;;;5126001;27;20181;-76
2021/12/22 10:56:30;;;;;;;18.83;9.07;;;4.90;65.50;;;;;;5125108;27;20188;-77
2021/12/22 10:59:03;;;;;;;16.60;8.90;;;5.00;66.10;;;;;;5124965;27;20192;-77
2021/12/22 11:01:35;;;;;;;14.23;7.53;;;5.00;64.80;;;;;;5120151;27;20177;-77
2021/12/22 11:04:14;;;;;;;16.83;7.50;;;5.00;63.30;;;;;;5122968;27;20616;-80
2021/12/22 11:06:42;;;;;;;17.27;8.13;;;5.00;64.00;;;;;;5125188;27;20419;-77
2021/12/22 11:09:15;;;;;;;12.53;7.30;;;5.00;64.00;;;;;;5126928;27;20669;-78
2021/12/22 11:11:45;;;;;;;18.47;7.03;;;5.00;63.20;;;;;;5126705;27;20261;-76
2021/12/22 11:14:19;;;;;;;14.83;7.17;;;5.00;62.80;;;;;;5127640;27;20189;-76
2021/12/22 11:17:09;;;;;;;14.30;7.17;;;5.00;63.00;;;;;;5127402;27;20176;-77
2021/12/22 11:19:49;;;;;;;12.63;6.57;;;5.00;63.50;;;;;;5126295;27;20569;-77
2021/12/22 11:22:22;;;;;;;12.70;6.93;;;5.00;63.80;;;;;;5110858;27;20173;-77
2021/12/22 11:24:52;;;;;;;13.47;6.73;;;5.10;63.20;;;;;;5128361;27;20551;-77
2021/12/22 11:27:22;;;;;;;12.03;6.17;;;5.10;62.50;;;;;;5126653;27;20185;-77
2021/12/22 11:29:54;;;;;;;13.37;6.27;;;5.20;62.60;;;;;;5126461;27;20191;-77
2021/12/22 11:32:24;;;;;;;12.97;7.03;;;5.20;61.70;;;;;;5126016;27;20185;-77
2021/12/22 11:34:55;;;;;;;11.23;6.33;;;5.30;62.30;;;;;;5126970;27;20200;-76
2021/12/22 11:37:25;;;;;;;15.10;6.20;;;5.40;62.30;;;;;;5127220;27;20191;-77
2021/12/22 11:39:54;;;;;;;15.17;7.13;;;5.40;61.90;;;;;;5126888;27;20680;-77
2021/12/22 11:42:27;;;;;;;15.20;6.90;;;5.50;61.90;;;;;;5127388;27;20227;-77
2021/12/22 11:45:05;;;;;;;11.50;5.63;;;5.60;61.40;;;;;;5126449;27;20217;-77
2021/12/22 11:47:36;;;;;;;14.00;6.50;;;5.70;60.80;;;;;;5125921;27;20181;-78
2021/12/22 11:50:07;;;;;;;18.03;5.87;;;5.70;60.50;;;;;;5125982;27;20207;-77
2021/12/22 11:52:38;;;;;;;10.70;5.63;;;5.80;59.90;;;;;;5125696;27;20188;-77
2021/12/22 11:55:13;;;;;;;11.53;5.13;;;5.80;59.60;;;;;;5124575;27;20186;-77
2021/12/22 11:57:42;;;;;;;11.37;5.00;;;5.90;59.00;;;;;;5126155;27;20634;-77
2021/12/22 12:00:33;;;;;;;12.77;5.03;;;5.90;58.40;;;;;;5125218;27;20751;-77
2021/12/22 12:03:21;;;;;;;10.20;5.43;;;5.90;58.40;;;;;;5125970;27;20191;-77
2021/12/22 12:06:08;;;;;;;10.37;5.17;;;6.00;58.40;;;;;;5122151;27;20802;-77
2021/12/22 12:08:40;;;;;;;9.30;4.50;;;6.00;56.80;;;;;;5126111;27;21017;-76
2021/12/22 12:11:10;;;;;;;8.80;5.00;;;6.00;56.80;;;;;;5126426;27;20218;-76
2021/12/22 12:13:54;;;;;;;15.23;5.53;;;6.00;56.90;;;;;;5125557;27;20210;-76
2021/12/22 12:22:33;;;;;;;13.83;4.70;;;6.10;56.40;;;;;;5112864;27;20197;-76
2021/12/22 12:25:07;;;;;;;10.93;4.73;;;6.10;56.90;;;;;;5123255;27;20196;-76
2021/12/22 12:27:40;;;;;;;15.17;5.67;;;6.10;57.10;;;;;;5124880;27;20189;-77
2021/12/22 12:30:12;;;;;;;10.37;4.70;;;6.10;57.10;;;;;;5126273;27;20177;-76
2021/12/22 12:33:05;;;;;;;14.00;5.80;;;6.10;56.60;;;;;;5125485;27;20181;-77
2021/12/22 12:35:36;;;;;;;8.70;5.00;;;6.10;57.00;;;;;;5125535;27;20189;-77
2021/12/22 12:38:15;;;;;;;18.50;5.73;;;6.10;57.40;;;;;;5125060;27;21611;-76
2021/12/22 12:41:16;;;;;;;9.30;5.07;;;6.10;57.30;;;;;;5124113;27;20185;-77
2021/12/22 12:43:59;;;;;;;16.98;6.38;;;6.00;57.00;;;;;;5117236;27;20435;-77
2021/12/22 12:46:53;;;;;;;19.07;5.60;;;6.00;57.60;;;;;;5125058;27;20187;-77
2021/12/22 12:49:33;;;;;;;10.60;5.50;;;5.90;57.00;;;;;;5122104;27;20197;-76
2021/12/22 12:52:06;;;;;;;14.63;6.77;;;6.00;57.30;;;;;;5121916;27;20210;-77
2021/12/22 12:54:39;;;;;;;11.80;6.00;;;5.90;57.30;;;;;;5131607;27;20184;-77
2021/12/22 12:57:28;;;;;;;15.37;5.87;;;6.00;57.60;;;;;;5126009;27;20189;-77
2021/12/22 13:00:06;;;;;;;14.30;6.43;;;6.00;57.60;;;;;;5125733;27;20184;-77
2021/12/22 13:02:39;;;;;;;12.13;5.60;;;6.10;58.00;;;;;;5133431;27;20181;-77
2021/12/22 13:05:15;;;;;;;11.53;5.57;;;6.10;58.20;;;;;;5128465;27;20202;-77
2021/12/22 13:07:45;;;;;;;14.40;5.27;;;6.20;58.30;;;;;;5123976;27;20806;-76
2021/12/22 13:10:23;;;;;;;12.50;5.60;;;6.20;58.10;;;;;;5122233;27;20681;-77
2021/12/22 13:15:47;;;;;;;15.57;6.30;;;6.40;57.90;;;;;;5124450;27;20176;-77
2021/12/22 13:18:28;;;;;;;14.60;6.23;;;6.40;57.60;;;;;;5124007;27;22073;-78
2021/12/22 13:21:08;;;;;;;11.53;5.47;;;6.30;57.50;;;;;;5121992;27;20231;-77